UUWW/VKO METAR and TAF weather

Enter ICAO airport designator
Station Type Date Time Source
UUWW METAR 2020/05/29 19:00 UTC NOAA

UUWW 291900Z 32003MPS 3500 -TSRA BKN003 OVC040CB 15/14 Q1015 R06/290250 TEMPO 1200 TSRA BR BKN001 BKN015CB


Station Type Date Time Source
UUWW Decoded METAR 2020/05/29 19:00 UTC NOAA

Moscow / Vnukovo , Russia (UUWW) 55-39N 037-16E
May 29, 2020 - 03:00 PM EDT / 2020.05.29 1900 UTC
Wind: from the NW (320 degrees) at 7 MPH (6 KT):0
Visibility: 2 mile(s):0
Sky conditions: overcast
Weather: light rain with thunder; Cumulonimbus clouds observed
Temperature: 59 F (15 C)
Dew Point: 57 F (14 C)
Relative Humidity: 93%
Pressure (altimeter): 29.97 in. Hg (1015 hPa)
ob: UUWW 291900Z 32003MPS 3500 -TSRA BKN003 OVC040CB 15/14 Q1015 R06/290250 TEMPO 1200 TSRA BR BKN001 BKN015CB
cycle: 19

Station Type Date Time Source
UUWW TAF 2020/05/29 18:21 UTC NOAA

TAF UUWW 291653Z 2918/3018 04003G08MPS 4000 BR BKN003 TX26/3012Z TN13/3002Z
TEMPO 2918/2924 VRB10MPS 1100 TSRA BR BKN002 BKN015CB
TEMPO 3000/3005 1000 BR BKN002
FM300500 05007MPS 9999 BKN016
TEMPO 3008/3015 06011G17MPS
TEMPO 3015/3018 3100 -TSRA FEW004 BKN020CB

Example: see airport list